Weather at Manor Farm Airstrip

Public forecast

Using degrees Celsius for public forecast. Weather courtesy of forecast.io.

Closest aviation weather report (METAR) to Manor Farm Airstrip

Report is more than 6 hours old.

Closest report is MoD Boscombe Down Airport, 9.7 nm (18.1 km) SSW. Retrieved 2021/01/27 00:50 UTC (1 day ago):

EGDM 270050Z AUTO 30009KT 9999 OVC002/// 08/08 Q1010

Closest aviation forecast (TAF) to Manor Farm Airstrip

Forecast is more than 12 hours old.

Closest forecast is MoD Boscombe Down Airport, 9.7 nm (18.1 km) SSW. Retrieved 2020-02-22 00:45 UTC (11 months ago):

TAF TAF EGDM 212241Z 2200/2212 23018G28KT 9999 BKN020 BECMG 2201/2204 BKN010 TEMPO 2202/2206 24028G38KT PROB30 TEMPO 2202/2210 3000 -RADZ BKN006 BECMG 2209/2211 SCT025 TEMPO 2211/2212 SCT015